Time,TemperatureF,DewpointF,PressureIn,WindDirection,WindDirectionDegrees,WindSpeedMPH,WindSpeedGustMPH,Humidity,HourlyPrecipIn,Conditions,Clouds,dailyrainin,SoftwareType,DateUTC
2013-02-07 00:05:00,46.7,43.6,30.01,NW,319,0.0,0.0,89,0.00,,,0.00,Wunderground v.1.15,2013-02-07 08:05:00,
2013-02-07 00:10:00,46.7,43.6,30.01,NW,319,0.0,0.0,89,0.00,,,0.00,Wunderground v.1.15,2013-02-07 08:10:00,
2013-02-07 00:20:00,46.4,43.3,30.00,NW,319,0.0,0.0,89,0.00,,,0.00,Wunderground v.1.15,2013-02-07 08:20:00,
2013-02-07 00:30:00,46.4,43.3,30.00,NW,319,0.0,0.0,89,0.00,,,0.00,Wunderground v.1.15,2013-02-07 08:30:00,
2013-02-07 00:35:00,46.2,43.1,30.00,NW,319,0.0,0.0,89,0.00,,,0.00,Wunderground v.1.15,2013-02-07 08:35:00,
2013-02-07 00:45:00,45.9,42.8,30.01,NW,319,0.0,0.0,89,0.00,,,0.00,Wunderground v.1.15,2013-02-07 08:45:00,
2013-02-07 00:50:00,46.1,43.3,30.01,NW,319,0.0,0.0,90,0.00,,,0.00,Wunderground v.1.15,2013-02-07 08:50:00,
2013-02-07 01:00:00,45.8,42.7,30.00,NW,319,0.0,0.0,89,0.00,,,0.00,Wunderground v.1.15,2013-02-07 09:00:00,
2013-02-07 01:10:00,45.8,43.0,30.00,NW,319,0.0,0.0,90,0.00,,,0.00,Wunderground v.1.15,2013-02-07 09:10:00,
2013-02-07 01:25:00,45.5,42.7,30.00,NW,319,0.0,0.0,90,0.00,,,0.00,Wunderground v.1.15,2013-02-07 09:25:00,
2013-02-07 01:30:00,45.3,42.5,30.00,NW,319,0.0,0.0,90,0.00,,,0.00,Wunderground v.1.15,2013-02-07 09:30:00,
2013-02-07 01:35:00,45.3,42.5,30.00,NW,319,0.0,0.0,90,0.00,,,0.00,Wunderground v.1.15,2013-02-07 09:35:00,
2013-02-07 01:40:00,45.2,42.4,30.00,NW,319,0.0,0.0,90,0.00,,,0.00,Wunderground v.1.15,2013-02-07 09:40:00,
2013-02-07 01:45:00,45.0,42.2,30.00,NW,319,0.0,0.0,90,0.00,,,0.00,Wunderground v.1.15,2013-02-07 09:45:00,
2013-02-07 01:50:00,45.0,42.2,30.00,NW,319,0.0,0.0,90,0.00,,,0.00,Wunderground v.1.15,2013-02-07 09:50:00,
2013-02-07 02:00:00,44.9,42.4,30.00,NW,319,0.0,0.0,91,0.00,,,0.00,Wunderground v.1.15,2013-02-07 10:00:00,
2013-02-07 02:10:00,44.6,41.8,30.00,NW,319,0.0,0.0,90,0.00,,,0.00,Wunderground v.1.15,2013-02-07 10:10:00,
2013-02-07 02:15:00,44.6,42.1,30.00,NW,319,0.0,0.0,91,0.00,,,0.00,Wunderground v.1.15,2013-02-07 10:15:00,
2013-02-07 02:20:00,44.5,42.0,30.00,NW,319,0.0,0.0,91,0.00,,,0.00,Wunderground v.1.15,2013-02-07 10:20:00,
2013-02-07 02:36:00,44.2,41.7,30.00,NW,319,0.0,0.0,91,0.00,,,0.00,Wunderground v.1.15,2013-02-07 10:36:00,
2013-02-07 02:40:00,44.0,41.5,30.00,NW,319,0.0,0.0,91,0.00,,,0.00,Wunderground v.1.15,2013-02-07 10:40:00,
2013-02-07 02:50:00,43.7,41.2,30.00,NW,319,0.0,0.0,91,0.00,,,0.00,Wunderground v.1.15,2013-02-07 10:50:00,
2013-02-07 03:00:00,43.7,41.2,30.00,NW,319,0.0,0.0,91,0.00,,,0.00,Wunderground v.1.15,2013-02-07 11:00:00,
2013-02-07 03:15:00,43.3,40.8,30.00,NW,319,0.0,0.0,91,0.00,,,0.00,Wunderground v.1.15,2013-02-07 11:15:00,
2013-02-07 03:25:00,43.4,40.9,30.00,NW,319,0.0,0.0,91,0.00,,,0.00,Wunderground v.1.15,2013-02-07 11:25:00,
2013-02-07 03:30:00,43.3,40.8,29.99,NW,319,0.0,0.0,91,0.00,,,0.00,Wunderground v.1.15,2013-02-07 11:30:00,
2013-02-07 03:36:00,43.3,40.8,29.99,NW,319,0.0,0.0,91,0.00,,,0.00,Wunderground v.1.15,2013-02-07 11:36:00,
2013-02-07 03:40:00,43.1,40.7,29.99,NW,319,0.0,0.0,91,0.00,,,0.00,Wunderground v.1.15,2013-02-07 11:40:00,
2013-02-07 03:50:00,44.2,42.0,29.99,NW,319,0.0,0.0,92,0.00,,,0.00,Wunderground v.1.15,2013-02-07 11:50:00,
2013-02-07 03:55:00,44.0,41.5,29.99,NW,319,0.0,0.0,91,0.00,,,0.00,Wunderground v.1.15,2013-02-07 11:55:00,
2013-02-07 04:01:00,43.7,41.2,29.99,NW,319,0.0,0.0,91,0.00,,,0.00,Wunderground v.1.15,2013-02-07 12:01:00,
2013-02-07 04:05:00,43.6,41.1,29.99,NW,319,0.0,0.0,91,0.00,,,0.00,Wunderground v.1.15,2013-02-07 12:05:00,
2013-02-07 04:15:00,43.1,40.7,29.99,NW,319,0.0,0.0,91,0.00,,,0.00,Wunderground v.1.15,2013-02-07 12:15:00,
2013-02-07 04:20:00,43.0,40.6,29.99,NW,319,0.0,0.0,91,0.00,,,0.00,Wunderground v.1.15,2013-02-07 12:20:00,
2013-02-07 04:30:00,42.8,40.4,29.99,NW,319,0.0,0.0,91,0.00,,,0.00,Wunderground v.1.15,2013-02-07 12:30:00,
2013-02-07 04:40:00,42.6,40.2,29.99,NW,319,0.0,0.0,91,0.00,,,0.00,Wunderground v.1.15,2013-02-07 12:40:00,
2013-02-07 04:45:00,42.4,40.0,30.00,NW,319,0.0,0.0,91,0.00,,,0.00,Wunderground v.1.15,2013-02-07 12:45:00,
2013-02-07 04:55:00,42.1,39.7,30.00,NW,319,0.0,0.0,91,0.00,,,0.00,Wunderground v.1.15,2013-02-07 12:55:00,
2013-02-07 05:05:00,41.8,39.4,30.00,NW,319,0.0,0.0,91,0.00,,,0.00,Wunderground v.1.15,2013-02-07 13:05:00,
2013-02-07 05:10:00,41.8,39.4,30.00,NW,319,0.0,0.0,91,0.00,,,0.00,Wunderground v.1.15,2013-02-07 13:10:00,
2013-02-07 05:20:00,42.1,39.7,30.00,NW,319,0.0,0.0,91,0.00,,,0.00,Wunderground v.1.15,2013-02-07 13:20:00,
2013-02-07 05:30:00,42.4,40.2,30.00,NW,319,0.0,1.0,92,0.00,,,0.00,Wunderground v.1.15,2013-02-07 13:30:00,
2013-02-07 05:40:00,42.3,39.9,30.00,NW,319,0.0,0.0,91,0.00,,,0.00,Wunderground v.1.15,2013-02-07 13:40:00,
2013-02-07 05:45:00,42.1,39.9,30.00,NW,319,0.0,0.0,92,0.00,,,0.00,Wunderground v.1.15,2013-02-07 13:45:00,
2013-02-07 05:55:00,42.0,39.8,30.00,NW,319,0.0,0.0,92,0.00,,,0.00,Wunderground v.1.15,2013-02-07 13:55:00,
2013-02-07 06:05:00,42.0,39.8,30.00,NW,319,0.0,0.0,92,0.00,,,0.00,Wunderground v.1.15,2013-02-07 14:05:00,
2013-02-07 06:20:00,41.8,39.6,30.01,NW,319,0.0,0.0,92,0.00,,,0.00,Wunderground v.1.15,2013-02-07 14:20:00,
2013-02-07 06:25:00,41.7,39.5,30.01,NW,319,0.0,0.0,92,0.00,,,0.00,Wunderground v.1.15,2013-02-07 14:25:00,
2013-02-07 06:35:00,41.6,39.4,30.00,NW,319,0.0,0.0,92,0.00,,,0.00,Wunderground v.1.15,2013-02-07 14:35:00,
2013-02-07 06:40:00,41.6,39.4,30.00,NW,319,0.0,0.0,92,0.00,,,0.00,Wunderground v.1.15,2013-02-07 14:40:00,
2013-02-07 06:50:00,41.6,39.4,30.01,NW,319,0.0,0.0,92,0.00,,,0.00,Wunderground v.1.15,2013-02-07 14:50:00,
2013-02-07 06:55:00,41.4,39.3,30.01,NW,319,0.0,0.0,92,0.00,,,0.00,Wunderground v.1.15,2013-02-07 14:55:00,
2013-02-07 07:00:00,41.6,39.4,30.02,NW,319,0.0,0.0,92,0.00,,,0.00,Wunderground v.1.15,2013-02-07 15:00:00,
2013-02-07 07:05:00,41.8,39.9,30.02,NW,319,0.0,0.0,93,0.00,,,0.00,Wunderground v.1.15,2013-02-07 15:05:00,
2013-02-07 07:10:00,42.0,39.8,30.02,NW,319,0.0,0.0,92,0.00,,,0.00,Wunderground v.1.15,2013-02-07 15:10:00,
2013-02-07 07:25:00,42.8,40.9,30.02,NW,319,0.0,0.0,93,0.00,,,0.00,Wunderground v.1.15,2013-02-07 15:25:00,
2013-02-07 07:31:00,43.4,41.5,30.02,NW,319,0.0,0.0,93,0.00,,,0.00,Wunderground v.1.15,2013-02-07 15:31:00,
2013-02-07 07:40:00,43.7,41.8,30.02,NW,319,0.0,1.0,93,0.00,,,0.00,Wunderground v.1.15,2013-02-07 15:40:00,
2013-02-07 07:55:00,45.0,43.1,30.02,NW,319,0.0,0.0,93,0.00,,,0.00,Wunderground v.1.15,2013-02-07 15:55:00,
2013-02-07 08:05:00,46.1,44.2,30.02,NW,319,0.0,0.0,93,0.00,,,0.00,Wunderground v.1.15,2013-02-07 16:05:00,
2013-02-07 08:15:00,47.3,45.4,30.02,NW,319,0.0,0.0,93,0.00,,,0.00,Wunderground v.1.15,2013-02-07 16:15:00,
2013-02-07 08:20:00,47.7,45.8,30.02,NW,319,0.0,1.0,93,0.00,,,0.00,Wunderground v.1.15,2013-02-07 16:20:00,
2013-02-07 08:30:00,48.3,46.4,30.03,NW,319,1.0,1.0,93,0.00,,,0.00,Wunderground v.1.15,2013-02-07 16:30:00,
2013-02-07 08:40:00,49.0,46.8,30.03,NW,319,2.0,2.0,92,0.00,,,0.00,Wunderground v.1.15,2013-02-07 16:40:00,
2013-02-07 08:45:00,49.5,47.3,30.03,NW,319,1.0,2.0,92,0.00,,,0.00,Wunderground v.1.15,2013-02-07 16:45:00,
2013-02-07 08:55:00,50.5,48.3,30.03,NW,319,1.0,1.0,92,0.00,,,0.00,Wunderground v.1.15,2013-02-07 16:55:00,
2013-02-07 09:00:00,51.0,48.5,30.03,NW,319,1.0,1.0,91,0.00,,,0.00,Wunderground v.1.15,2013-02-07 17:00:00,
2013-02-07 09:05:00,51.4,48.9,30.03,NW,323,1.0,2.0,91,0.00,,,0.00,Wunderground v.1.15,2013-02-07 17:05:00,
2013-02-07 09:20:00,53.0,49.5,30.03,NNW,343,1.0,1.0,88,0.00,,,0.00,Wunderground v.1.15,2013-02-07 17:20:00,
2013-02-07 09:25:00,53.5,49.7,30.03,NNW,343,1.0,1.0,87,0.00,,,0.00,Wunderground v.1.15,2013-02-07 17:25:00,
2013-02-07 09:35:00,54.1,49.4,30.03,NE,38,1.0,2.0,84,0.00,,,0.00,Wunderground v.1.15,2013-02-07 17:35:00,
2013-02-07 09:45:00,55.2,49.5,30.02,NE,38,1.0,1.0,81,0.00,,,0.00,Wunderground v.1.15,2013-02-07 17:45:00,
2013-02-07 09:50:00,55.5,49.1,30.02,NE,38,1.0,1.0,79,0.00,,,0.00,Wunderground v.1.15,2013-02-07 17:50:00,
2013-02-07 10:00:00,56.6,48.8,30.02,SW,226,1.0,2.0,75,0.00,,,0.00,Wunderground v.1.15,2013-02-07 18:00:00,
2013-02-07 10:05:00,56.6,48.4,30.02,SW,226,1.0,2.0,74,0.00,,,0.00,Wunderground v.1.15,2013-02-07 18:05:00,
2013-02-07 10:15:00,57.5,48.5,30.02,South,174,1.0,1.0,72,0.00,,,0.00,Wunderground v.1.15,2013-02-07 18:15:00,
2013-02-07 10:20:00,58.0,49.0,30.02,SW,220,1.0,3.0,72,0.00,,,0.00,Wunderground v.1.15,2013-02-07 18:20:00,
2013-02-07 10:30:00,58.1,47.6,30.02,SE,145,1.0,1.0,68,0.00,,,0.00,Wunderground v.1.15,2013-02-07 18:30:00,
2013-02-07 10:35:00,58.3,47.8,30.02,SSW,203,1.0,1.0,68,0.00,,,0.00,Wunderground v.1.15,2013-02-07 18:35:00,
2013-02-07 10:45:00,58.1,48.0,30.02,WNW,294,3.0,3.0,69,0.00,,,0.00,Wunderground v.1.15,2013-02-07 18:45:00,
2013-02-07 11:00:00,57.7,47.2,30.02,WSW,257,3.0,7.0,68,0.00,,,0.00,Wunderground v.1.15,2013-02-07 19:00:00,
2013-02-07 11:10:00,57.5,47.4,30.02,SSW,212,5.0,5.0,69,0.00,,,0.00,Wunderground v.1.15,2013-02-07 19:10:00,
2013-02-07 11:20:00,58.0,47.5,30.01,SW,220,4.0,8.0,68,0.00,,,0.00,Wunderground v.1.15,2013-02-07 19:20:00,
2013-02-07 11:25:00,58.4,47.5,30.01,South,186,3.0,8.0,67,0.00,,,0.00,Wunderground v.1.15,2013-02-07 19:25:00,
2013-02-07 11:30:00,58.6,47.3,30.01,South,172,4.0,7.0,66,0.00,,,0.00,Wunderground v.1.15,2013-02-07 19:30:00,
2013-02-07 11:45:00,58.6,47.7,30.01,South,179,5.0,5.0,67,0.00,,,0.00,Wunderground v.1.15,2013-02-07 19:45:00,
2013-02-07 11:50:00,58.3,47.0,30.01,SW,229,5.0,7.0,66,0.00,,,0.00,Wunderground v.1.15,2013-02-07 19:50:00,
2013-02-07 12:00:00,58.7,47.4,30.00,SW,232,6.0,6.0,66,0.00,,,0.00,Wunderground v.1.15,2013-02-07 20:00:00,
2013-02-07 12:05:00,58.4,47.1,30.00,SSW,192,6.0,8.0,66,0.00,,,0.00,Wunderground v.1.15,2013-02-07 20:05:00,
2013-02-07 12:15:00,59.2,47.4,29.99,South,185,5.0,7.0,65,0.00,,,0.00,Wunderground v.1.15,2013-02-07 20:15:00,
2013-02-07 12:25:00,59.7,47.9,29.99,South,186,5.0,6.0,65,0.00,,,0.00,Wunderground v.1.15,2013-02-07 20:25:00,
2013-02-07 12:30:00,59.7,47.5,29.98,SSW,206,6.0,6.0,64,0.00,,,0.00,Wunderground v.1.15,2013-02-07 20:30:00,
2013-02-07 12:40:00,58.7,47.0,29.98,WSW,254,6.0,9.0,65,0.00,,,0.00,Wunderground v.1.15,2013-02-07 20:40:00,
2013-02-07 12:50:00,58.6,47.7,29.98,SW,224,6.0,6.0,67,0.00,,,0.00,Wunderground v.1.15,2013-02-07 20:50:00,
2013-02-07 12:55:00,58.6,47.3,29.98,WSW,246,6.0,9.0,66,0.00,,,0.00,Wunderground v.1.15,2013-02-07 20:55:00,
2013-02-07 13:05:00,59.2,47.8,29.97,SW,236,5.0,5.0,66,0.00,,,0.00,Wunderground v.1.15,2013-02-07 21:05:00,
2013-02-07 13:10:00,59.2,47.0,29.97,WSW,243,5.0,6.0,64,0.00,,,0.00,Wunderground v.1.15,2013-02-07 21:10:00,
2013-02-07 13:20:00,59.5,47.7,29.96,SW,220,5.0,6.0,65,0.00,,,0.00,Wunderground v.1.15,2013-02-07 21:20:00,
2013-02-07 13:25:00,59.8,48.0,29.96,South,176,5.0,6.0,65,0.00,,,0.00,Wunderground v.1.15,2013-02-07 21:25:00,
2013-02-07 13:35:00,60.5,47.8,29.95,SSW,208,5.0,7.0,63,0.00,,,0.00,Wunderground v.1.15,2013-02-07 21:35:00,
2013-02-07 13:40:00,60.6,47.1,29.95,WSW,240,5.0,7.0,61,0.00,,,0.00,Wunderground v.1.15,2013-02-07 21:40:00,
2013-02-07 14:01:00,61.4,47.8,29.94,South,172,4.0,4.0,61,0.00,,,0.00,Wunderground v.1.15,2013-02-07 22:01:00,
2013-02-07 14:05:00,60.8,47.7,29.94,SSW,202,5.0,7.0,62,0.00,,,0.00,Wunderground v.1.15,2013-02-07 22:05:00,
2013-02-07 14:20:00,60.1,47.5,29.94,SW,234,5.0,6.0,63,0.00,,,0.00,Wunderground v.1.15,2013-02-07 22:20:00,
2013-02-07 14:40:00,58.0,47.1,29.93,SSW,213,6.0,7.0,67,0.00,,,0.00,Wunderground v.1.15,2013-02-07 22:40:00,
2013-02-07 14:45:00,58.0,47.1,29.93,SSE,168,6.0,8.0,67,0.00,,,0.00,Wunderground v.1.15,2013-02-07 22:45:00,
2013-02-07 14:50:00,58.0,47.1,29.93,SSW,213,6.0,8.0,67,0.00,,,0.00,Wunderground v.1.15,2013-02-07 22:50:00,
2013-02-07 15:00:00,57.7,46.8,29.92,SW,216,6.0,9.0,67,0.00,,,0.00,Wunderground v.1.15,2013-02-07 23:00:00,
2013-02-07 15:05:00,57.4,46.9,29.92,SSE,167,6.0,9.0,68,0.00,,,0.00,Wunderground v.1.15,2013-02-07 23:05:00,
2013-02-07 15:15:00,57.4,46.9,29.92,South,185,5.0,6.0,68,0.00,,,0.00,Wunderground v.1.15,2013-02-07 23:15:00,
2013-02-07 15:30:00,56.8,45.6,29.92,WSW,237,7.0,8.0,66,0.00,,,0.00,Wunderground v.1.15,2013-02-07 23:30:00,
2013-02-07 15:35:00,56.8,46.0,29.92,SSW,208,8.0,8.0,67,0.00,,,0.00,Wunderground v.1.15,2013-02-07 23:35:00,
2013-02-07 15:40:00,56.8,45.6,29.92,SSW,206,7.0,7.0,66,0.00,,,0.00,Wunderground v.1.15,2013-02-07 23:40:00,
2013-02-07 15:50:00,56.9,45.7,29.93,SW,226,5.0,6.0,66,0.00,,,0.00,Wunderground v.1.15,2013-02-07 23:50:00,
2013-02-07 16:05:00,56.3,45.9,29.93,SSW,196,6.0,6.0,68,0.00,,,0.00,Wunderground v.1.15,2013-02-08 00:05:00,
2013-02-07 16:10:00,56.1,46.1,29.93,SSW,200,6.0,7.0,69,0.00,,,0.00,Wunderground v.1.15,2013-02-08 00:10:00,
2013-02-07 16:20:00,56.0,45.6,29.93,SW,227,6.0,6.0,68,0.00,,,0.00,Wunderground v.1.15,2013-02-08 00:20:00,
2013-02-07 16:35:00,55.7,44.9,29.92,SW,220,4.0,5.0,67,0.00,,,0.00,Wunderground v.1.15,2013-02-08 00:35:00,
2013-02-07 16:40:00,55.5,44.7,29.92,SSW,213,4.0,6.0,67,0.00,,,0.00,Wunderground v.1.15,2013-02-08 00:40:00,
2013-02-07 16:50:00,55.5,44.7,29.92,SW,224,4.0,7.0,67,0.00,,,0.00,Wunderground v.1.15,2013-02-08 00:50:00,
2013-02-07 17:05:00,55.1,44.7,29.92,SW,229,6.0,6.0,68,0.00,,,0.00,Wunderground v.1.15,2013-02-08 01:05:00,
2013-02-07 17:10:00,55.1,44.7,29.92,South,186,6.0,6.0,68,0.00,,,0.00,Wunderground v.1.15,2013-02-08 01:10:00,
2013-02-07 17:20:00,54.8,44.4,29.92,SW,219,4.0,9.0,68,0.00,,,0.00,Wunderground v.1.15,2013-02-08 01:20:00,
2013-02-07 17:25:00,54.7,44.3,29.92,WSW,244,6.0,9.0,68,0.00,,,0.00,Wunderground v.1.15,2013-02-08 01:25:00,
2013-02-07 17:45:00,54.5,44.2,29.92,SW,233,3.0,3.0,68,0.00,,,0.00,Wunderground v.1.15,2013-02-08 01:45:00,
2013-02-07 17:50:00,54.5,44.2,29.92,SW,232,2.0,5.0,68,0.00,,,0.00,Wunderground v.1.15,2013-02-08 01:50:00,
2013-02-07 18:00:00,54.4,43.7,29.92,West,260,4.0,4.0,67,0.00,,,0.00,Wunderground v.1.15,2013-02-08 02:00:00,
2013-02-07 18:05:00,54.2,43.5,29.92,SW,229,3.0,4.0,67,0.00,,,0.00,Wunderground v.1.15,2013-02-08 02:05:00,
2013-02-07 18:10:00,54.2,43.5,29.92,SW,220,3.0,7.0,67,0.00,,,0.00,Wunderground v.1.15,2013-02-08 02:10:00,
2013-02-07 18:25:00,54.1,42.6,29.92,WSW,241,4.0,4.0,65,0.00,,,0.00,Wunderground v.1.15,2013-02-08 02:25:00,
2013-02-07 18:40:00,53.8,42.3,29.92,SSW,200,3.0,3.0,65,0.00,,,0.00,Wunderground v.1.15,2013-02-08 02:40:00,
2013-02-07 18:45:00,53.6,41.7,29.91,SW,224,2.0,3.0,64,0.00,,,0.00,Wunderground v.1.15,2013-02-08 02:45:00,
2013-02-07 18:55:00,53.2,41.7,29.91,SW,222,3.0,3.0,65,0.00,,,0.00,Wunderground v.1.15,2013-02-08 02:55:00,
2013-02-07 19:00:00,53.2,42.1,29.91,WSW,243,3.0,3.0,66,0.00,,,0.00,Wunderground v.1.15,2013-02-08 03:00:00,
2013-02-07 19:05:00,53.0,41.9,29.91,WSW,240,3.0,3.0,66,0.00,,,0.00,Wunderground v.1.15,2013-02-08 03:05:00,
2013-02-07 19:15:00,52.7,42.0,29.90,SW,215,3.0,4.0,67,0.00,,,0.00,Wunderground v.1.15,2013-02-08 03:15:00,
2013-02-07 19:20:00,52.6,41.9,29.90,WSW,246,4.0,4.0,67,0.00,,,0.00,Wunderground v.1.15,2013-02-08 03:20:00,
2013-02-07 19:30:00,52.6,41.9,29.91,SW,217,2.0,2.0,67,0.00,,,0.00,Wunderground v.1.15,2013-02-08 03:30:00,
2013-02-07 19:45:00,52.3,42.4,29.90,SW,223,1.0,6.0,69,0.00,,,0.00,Wunderground v.1.15,2013-02-08 03:45:00,
2013-02-07 19:50:00,52.4,42.9,29.90,SSW,199,2.0,6.0,70,0.00,,,0.00,Wunderground v.1.15,2013-02-08 03:50:00,
2013-02-07 20:00:00,53.0,44.6,29.90,WSW,246,4.0,4.0,73,0.00,,,0.00,Wunderground v.1.15,2013-02-08 04:00:00,
2013-02-07 20:15:00,53.0,44.9,29.90,SW,220,2.0,2.0,74,0.00,,,0.00,Wunderground v.1.15,2013-02-08 04:15:00,
2013-02-07 20:25:00,53.0,44.9,29.90,West,261,2.0,2.0,74,0.00,,,0.00,Wunderground v.1.15,2013-02-08 04:25:00,
2013-02-07 20:40:00,53.0,44.9,29.90,WSW,247,2.0,2.0,74,0.00,,,0.00,Wunderground v.1.15,2013-02-08 04:40:00,
2013-02-07 20:45:00,53.0,44.6,29.91,WSW,247,1.0,2.0,73,0.00,,,0.00,Wunderground v.1.15,2013-02-08 04:45:00,
2013-02-07 20:55:00,52.9,43.4,29.91,WNW,298,2.0,3.0,70,0.00,,,0.00,Wunderground v.1.15,2013-02-08 04:55:00,
2013-02-07 21:10:00,53.0,42.3,29.91,WSW,257,1.0,2.0,67,0.00,,,0.00,Wunderground v.1.15,2013-02-08 05:10:00,
2013-02-07 21:15:00,53.0,41.5,29.91,SW,226,1.0,2.0,65,0.00,,,0.00,Wunderground v.1.15,2013-02-08 05:15:00,
2013-02-07 21:20:00,53.0,41.5,29.91,SW,226,1.0,1.0,65,0.00,,,0.00,Wunderground v.1.15,2013-02-08 05:20:00,
2013-02-07 21:25:00,53.0,41.5,29.91,East,100,1.0,1.0,65,0.00,,,0.00,Wunderground v.1.15,2013-02-08 05:25:00,
2013-02-07 21:30:00,52.9,41.4,29.90,East,100,1.0,1.0,65,0.00,,,0.00,Wunderground v.1.15,2013-02-08 05:30:00,
2013-02-07 21:50:00,52.1,42.2,29.90,ESE,120,1.0,1.0,69,0.00,,,0.00,Wunderground v.1.15,2013-02-08 05:50:00,
2013-02-07 21:55:00,51.8,41.9,29.90,ESE,120,1.0,2.0,69,0.00,,,0.00,Wunderground v.1.15,2013-02-08 05:55:00,
2013-02-07 22:05:00,51.4,41.9,29.90,ESE,120,0.0,2.0,70,0.00,,,0.00,Wunderground v.1.15,2013-02-08 06:05:00,
2013-02-07 22:10:00,51.4,41.9,29.90,SW,220,1.0,2.0,70,0.00,,,0.00,Wunderground v.1.15,2013-02-08 06:10:00,
2013-02-07 22:15:00,51.4,41.9,29.90,SSW,210,1.0,2.0,70,0.00,,,0.00,Wunderground v.1.15,2013-02-08 06:15:00,
2013-02-07 22:26:00,51.7,42.2,29.90,SSW,205,2.0,3.0,70,0.00,,,0.00,Wunderground v.1.15,2013-02-08 06:26:00,
2013-02-07 22:35:00,52.1,42.2,29.90,SW,233,1.0,3.0,69,0.00,,,0.00,Wunderground v.1.15,2013-02-08 06:35:00,
2013-02-07 22:50:00,52.7,43.2,29.90,SW,226,2.0,2.0,70,0.00,,,0.00,Wunderground v.1.15,2013-02-08 06:50:00,
2013-02-07 22:55:00,53.0,43.8,29.90,SW,217,2.0,5.0,71,0.00,,,0.00,Wunderground v.1.15,2013-02-08 06:55:00,
2013-02-07 23:05:00,53.3,45.2,29.90,SW,226,3.0,3.0,74,0.00,,,0.00,Wunderground v.1.15,2013-02-08 07:05:00,
2013-02-07 23:10:00,53.3,45.6,29.90,SW,216,2.0,5.0,75,0.00,,,0.00,Wunderground v.1.15,2013-02-08 07:10:00,
2013-02-07 23:20:00,53.2,46.2,29.89,SSW,196,4.0,4.0,77,0.00,,,0.00,Wunderground v.1.15,2013-02-08 07:20:00,
2013-02-07 23:25:00,53.2,46.5,29.89,SW,223,3.0,4.0,78,0.00,,,0.00,Wunderground v.1.15,2013-02-08 07:25:00,
2013-02-07 23:35:00,53.2,46.5,29.89,WSW,258,4.0,4.0,78,0.00,,,0.00,Wunderground v.1.15,2013-02-08 07:35:00,
2013-02-07 23:40:00,53.0,46.0,29.89,SW,236,5.0,6.0,77,0.00,,,0.00,Wunderground v.1.15,2013-02-08 07:40:00,
2013-02-07 23:55:00,52.7,45.0,29.89,West,270,8.0,8.0,75,0.00,,,0.00,Wunderground v.1.15,2013-02-08 07:55:00,